createdAt,value
2022-11-13T00:01:19.092Z,7.10
2022-11-13T00:03:47.310Z,7.10
2022-11-13T00:06:17.206Z,7.10
2022-11-13T00:08:45.506Z,7.10
2022-11-13T00:11:15.945Z,7.10
2022-11-13T00:13:45.700Z,7.20
2022-11-13T00:16:15.638Z,7.00
2022-11-13T00:18:43.879Z,7.00
2022-11-13T00:21:15.361Z,7.00
2022-11-13T00:23:43.616Z,7.00
2022-11-13T00:26:14.106Z,7.00
2022-11-13T00:28:42.367Z,7.00
2022-11-13T00:31:13.271Z,6.90
2022-11-13T00:36:30.167Z,7.00
2022-11-13T00:38:58.893Z,7.30
2022-11-13T00:41:26.743Z,6.80
2022-11-13T00:43:54.587Z,7.00
2022-11-13T00:46:23.736Z,6.80
2022-11-13T00:48:51.539Z,7.00
2022-11-13T00:51:19.647Z,6.90
2022-11-13T00:53:47.550Z,6.90
2022-11-13T00:56:15.757Z,6.90
2022-11-13T00:58:43.615Z,6.90
2022-11-13T01:01:14.354Z,6.90
2022-11-13T01:03:44.384Z,6.80
2022-11-13T01:06:14.576Z,6.80
2022-11-13T01:08:42.714Z,6.90
2022-11-13T01:11:12.233Z,6.90
2022-11-13T01:13:40.660Z,6.80
2022-11-13T01:16:10.819Z,6.80
2022-11-13T01:18:39.315Z,6.80
2022-11-13T01:21:16.094Z,6.80
2022-11-13T01:23:44.018Z,6.80
2022-11-13T01:26:14.354Z,6.80
2022-11-13T01:28:43.039Z,6.80
2022-11-13T01:31:13.496Z,6.80
2022-11-13T01:33:41.305Z,6.80
2022-11-13T01:36:14.145Z,6.80
2022-11-13T01:38:42.238Z,6.80
2022-11-13T01:41:21.826Z,6.80
2022-11-13T01:43:51.679Z,6.60
2022-11-13T01:46:23.224Z,6.80
2022-11-13T01:48:55.452Z,6.80
2022-11-13T01:51:30.606Z,6.70
2022-11-13T01:53:59.773Z,6.80
2022-11-13T01:56:27.878Z,6.80
2022-11-13T01:59:02.811Z,6.70
2022-11-13T02:01:30.620Z,6.70
2022-11-13T02:03:58.464Z,6.80
2022-11-13T02:06:29.891Z,6.70
2022-11-13T02:08:57.779Z,6.80
2022-11-13T02:11:26.315Z,6.80
2022-11-13T02:13:54.266Z,6.90
2022-11-13T02:16:24.116Z,6.70
2022-11-13T02:18:52.746Z,6.80
2022-11-13T02:21:33.357Z,6.80
2022-11-13T02:24:05.923Z,8.20
2022-11-13T02:26:35.587Z,6.70
2022-11-13T02:29:03.423Z,6.70
2022-11-13T02:31:31.224Z,6.70
2022-11-13T02:33:59.050Z,6.70
2022-11-13T02:36:28.022Z,6.70
2022-11-13T02:38:59.978Z,6.70
2022-11-13T02:41:27.784Z,6.60
2022-11-13T02:43:56.956Z,6.70
2022-11-13T02:46:24.764Z,6.60
2022-11-13T02:48:52.578Z,6.60
2022-11-13T02:51:20.374Z,6.60
2022-11-13T02:53:48.192Z,6.60
2022-11-13T02:56:16.016Z,6.40
2022-11-13T02:58:43.829Z,6.50
2022-11-13T03:01:13.091Z,6.60
2022-11-13T03:03:57.028Z,6.50
2022-11-13T03:06:25.136Z,6.40
2022-11-13T03:08:53.056Z,6.50
2022-11-13T03:11:20.961Z,6.80
2022-11-13T03:13:48.814Z,6.60
2022-11-13T03:16:18.884Z,6.50
2022-11-13T03:18:46.750Z,6.40
2022-11-13T03:21:15.985Z,6.40
2022-11-13T03:23:45.955Z,6.40
2022-11-13T03:26:15.569Z,6.40
2022-11-13T03:28:43.684Z,6.40
2022-11-13T03:31:11.803Z,6.40
2022-11-13T03:33:41.073Z,6.40
2022-11-13T03:36:09.310Z,6.40
2022-11-13T03:38:37.670Z,6.40
2022-11-13T03:41:05.760Z,6.40
2022-11-13T03:43:33.608Z,6.30
2022-11-13T03:46:01.410Z,6.30
2022-11-13T03:48:29.703Z,6.50
2022-11-13T03:50:59.167Z,6.30
2022-11-13T03:53:27.041Z,6.30
2022-11-13T03:55:55.120Z,6.30
2022-11-13T03:58:22.939Z,6.30
2022-11-13T04:00:51.300Z,6.30
2022-11-13T04:03:20.071Z,6.30
2022-11-13T04:05:49.320Z,6.30
2022-11-13T04:08:19.068Z,6.30
2022-11-13T04:10:46.964Z,6.30
2022-11-13T04:13:14.784Z,6.30
2022-11-13T04:15:42.640Z,6.30
2022-11-13T04:18:10.506Z,6.30
2022-11-13T04:20:38.340Z,6.30
2022-11-13T04:23:11.345Z,6.30
2022-11-13T04:25:40.540Z,6.20
2022-11-13T04:28:08.385Z,6.20
2022-11-13T04:30:36.212Z,6.20
2022-11-13T04:33:04.114Z,6.30
2022-11-13T04:35:31.918Z,6.20
2022-11-13T04:37:59.761Z,6.20
2022-11-13T04:40:27.675Z,6.20
2022-11-13T04:42:55.849Z,5.90
2022-11-13T04:45:27.379Z,6.20
2022-11-13T04:47:55.346Z,6.20
2022-11-13T04:50:23.614Z,6.20
2022-11-13T04:52:51.451Z,6.40
2022-11-13T04:55:19.368Z,6.20
2022-11-13T04:57:47.200Z,6.20
2022-11-13T05:00:16.888Z,6.20
2022-11-13T05:02:44.728Z,6.20
2022-11-13T05:05:12.807Z,6.10
2022-11-13T05:07:42.493Z,6.10
2022-11-13T05:10:10.585Z,6.20
2022-11-13T05:12:38.407Z,6.20
2022-11-13T05:15:07.529Z,6.10
2022-11-13T05:17:36.714Z,6.10
2022-11-13T05:20:05.738Z,6.10
2022-11-13T05:22:33.554Z,6.10
2022-11-13T05:25:01.379Z,6.10
2022-11-13T05:27:29.381Z,6.10
2022-11-13T05:29:57.282Z,6.10
2022-11-13T05:32:25.103Z,6.20
2022-11-13T05:34:54.296Z,6.20
2022-11-13T05:37:22.108Z,6.20
2022-11-13T05:39:49.908Z,6.20
2022-11-13T05:42:17.728Z,6.40
2022-11-13T05:44:45.547Z,6.10
2022-11-13T05:47:13.359Z,6.10
2022-11-13T05:49:41.186Z,6.10
2022-11-13T05:52:10.317Z,6.10
2022-11-13T05:54:38.703Z,6.10
2022-11-13T05:57:06.508Z,6.00
2022-11-13T05:59:34.351Z,6.00
2022-11-13T06:02:02.385Z,6.10
2022-11-13T06:04:30.280Z,5.80
2022-11-13T06:06:58.111Z,6.00
2022-11-13T06:09:27.299Z,6.00
2022-11-13T06:11:55.126Z,6.00
2022-11-13T06:14:22.947Z,6.10
2022-11-13T06:16:50.748Z,6.00
2022-11-13T06:19:18.768Z,5.90
2022-11-13T06:21:46.639Z,6.00
2022-11-13T06:24:14.671Z,6.00
2022-11-13T06:26:43.826Z,6.00
2022-11-13T06:29:13.096Z,6.00
2022-11-13T06:31:40.975Z,6.10
2022-11-13T06:34:09.305Z,6.00
2022-11-13T06:36:38.472Z,6.00
2022-11-13T06:39:10.609Z,6.00
2022-11-13T06:41:39.312Z,6.00
2022-11-13T06:44:08.582Z,5.90
2022-11-13T06:46:36.603Z,6.00
2022-11-13T06:49:04.512Z,6.00
2022-11-13T06:51:32.732Z,6.00
2022-11-13T06:54:00.584Z,6.00
2022-11-13T06:56:28.390Z,5.90
2022-11-13T06:58:56.783Z,6.00
2022-11-13T07:01:27.159Z,6.00
2022-11-13T07:03:55.304Z,5.90
2022-11-13T07:06:25.209Z,5.90
2022-11-13T07:08:53.607Z,6.00
2022-11-13T07:11:22.722Z,6.00
2022-11-13T07:13:51.277Z,5.80
2022-11-13T07:16:19.338Z,6.00
2022-11-13T07:18:52.474Z,6.30
2022-11-13T07:21:21.092Z,6.00
2022-11-13T07:23:50.323Z,6.00
2022-11-13T07:26:19.763Z,5.90
2022-11-13T07:28:48.260Z,5.90
2022-11-13T07:31:17.569Z,5.90
2022-11-13T07:33:45.926Z,6.10
2022-11-13T07:36:15.075Z,5.80
2022-11-13T07:38:42.917Z,6.00
2022-11-13T07:41:10.800Z,6.00
2022-11-13T07:43:38.920Z,5.80
2022-11-13T07:46:07.008Z,6.10
2022-11-13T07:48:34.884Z,5.90
2022-11-13T07:51:03.530Z,5.90
2022-11-13T07:53:32.817Z,5.90
2022-11-13T07:56:04.346Z,5.90
2022-11-13T07:58:32.296Z,5.90
2022-11-13T08:01:04.414Z,5.80
2022-11-13T08:03:32.693Z,5.90
2022-11-13T08:06:05.090Z,6.20
2022-11-13T08:08:35.392Z,6.00
2022-11-13T08:11:06.032Z,6.00
2022-11-13T08:13:34.232Z,5.90
2022-11-13T08:16:02.750Z,6.10
2022-11-13T08:18:31.853Z,6.20
2022-11-13T08:21:03.376Z,6.20
2022-11-13T08:23:31.883Z,6.20
2022-11-13T08:26:05.492Z,6.20
2022-11-13T08:28:33.598Z,6.20
2022-11-13T08:31:01.581Z,6.20
2022-11-13T08:33:29.503Z,6.30
2022-11-13T08:35:58.862Z,6.20
2022-11-13T08:38:27.504Z,6.40
2022-11-13T08:40:57.990Z,6.30
2022-11-13T08:43:27.349Z,6.40
2022-11-13T08:45:55.729Z,6.40
2022-11-13T08:48:24.628Z,6.40
2022-11-13T08:50:53.512Z,6.40
2022-11-13T08:53:22.177Z,6.40
2022-11-13T08:55:50.292Z,6.40
2022-11-13T08:58:18.160Z,6.20
2022-11-13T09:00:47.768Z,6.50
2022-11-13T09:03:15.623Z,6.50
2022-11-13T09:05:43.432Z,6.50
2022-11-13T09:08:11.502Z,6.60
2022-11-13T09:10:39.460Z,6.70
2022-11-13T09:13:09.362Z,6.60
2022-11-13T09:15:38.818Z,6.60
2022-11-13T09:18:08.074Z,6.60
2022-11-13T09:20:36.012Z,6.60
2022-11-13T09:23:05.464Z,6.60
2022-11-13T09:25:37.608Z,6.70
2022-11-13T09:28:07.136Z,6.60
2022-11-13T09:30:35.305Z,6.70
2022-11-13T09:33:03.230Z,6.70
2022-11-13T09:35:36.664Z,6.70
2022-11-13T09:38:11.000Z,6.60
2022-11-13T09:40:44.897Z,6.70
2022-11-13T09:43:23.251Z,6.70
2022-11-13T09:45:52.809Z,6.80
2022-11-13T09:48:27.252Z,6.70
2022-11-13T09:50:58.252Z,6.80
2022-11-13T09:53:27.396Z,6.80
2022-11-13T09:56:03.132Z,6.80
2022-11-13T09:58:44.278Z,6.80
2022-11-13T10:01:21.792Z,6.80
2022-11-13T10:04:04.416Z,7.00
2022-11-13T10:06:49.256Z,6.80
2022-11-13T10:09:25.207Z,6.80
2022-11-13T10:11:57.332Z,7.00
2022-11-13T10:14:30.135Z,7.00
2022-11-13T10:17:03.681Z,6.90
2022-11-13T10:19:38.984Z,6.90
2022-11-13T10:22:33.931Z,6.90
2022-11-13T10:25:11.700Z,6.90
2022-11-13T10:27:39.967Z,7.00
2022-11-13T10:30:14.843Z,7.00
2022-11-13T10:32:42.994Z,7.00
2022-11-13T10:35:33.139Z,7.30
2022-11-13T10:38:08.603Z,7.10
2022-11-13T10:40:38.576Z,7.20
2022-11-13T10:43:08.068Z,7.50
2022-11-13T10:45:35.908Z,7.20
2022-11-13T10:48:05.168Z,7.20
2022-11-13T10:50:34.328Z,7.30
2022-11-13T10:53:03.576Z,7.40
2022-11-13T10:55:39.605Z,7.30
2022-11-13T10:58:14.815Z,7.30
2022-11-13T11:00:44.906Z,7.30
2022-11-13T11:03:17.347Z,7.40
2022-11-13T11:05:55.390Z,7.40
2022-11-13T11:08:30.805Z,7.40
2022-11-13T11:11:18.591Z,7.50
2022-11-13T11:13:46.995Z,7.60
2022-11-13T11:16:19.792Z,7.60
2022-11-13T11:18:54.207Z,7.80
2022-11-13T11:21:26.482Z,7.70
2022-11-13T11:23:57.998Z,7.70
2022-11-13T11:26:32.186Z,7.70
2022-11-13T11:29:13.928Z,7.70
2022-11-13T11:31:49.863Z,7.70
2022-11-13T11:34:22.676Z,7.70
2022-11-13T11:36:59.253Z,7.70
2022-11-13T11:39:32.554Z,7.70
2022-11-13T11:42:09.724Z,7.70
2022-11-13T11:44:56.912Z,7.60
2022-11-13T11:47:24.822Z,7.70
2022-11-13T11:49:52.691Z,7.80
2022-11-13T11:52:32.350Z,7.80
2022-11-13T11:55:29.000Z,7.80
2022-11-13T11:58:02.075Z,7.80
2022-11-13T12:00:33.060Z,7.90
2022-11-13T12:03:27.355Z,7.90
2022-11-13T12:06:06.956Z,8.00
2022-11-13T12:08:41.873Z,8.50
2022-11-13T12:11:18.779Z,8.20
2022-11-13T12:13:55.375Z,8.40
2022-11-13T12:16:30.945Z,8.60
2022-11-13T12:19:05.549Z,8.80
2022-11-13T12:21:44.304Z,9.20
2022-11-13T12:24:41.877Z,9.40
2022-11-13T12:27:21.131Z,9.70
2022-11-13T12:30:03.863Z,10.00
2022-11-13T12:32:42.632Z,10.10
2022-11-13T12:35:16.746Z,10.30
2022-11-13T12:37:50.845Z,10.50
2022-11-13T12:40:27.435Z,10.90
2022-11-13T12:43:07.273Z,11.20
2022-11-13T12:45:51.695Z,11.60
2022-11-13T12:48:27.199Z,12.00
2022-11-13T12:51:00.262Z,12.40
2022-11-13T12:53:29.676Z,12.70
2022-11-13T12:56:00.474Z,13.00
2022-11-13T12:58:32.285Z,13.20
2022-11-13T13:01:03.397Z,13.50
2022-11-13T13:03:50.767Z,13.70
2022-11-13T13:06:30.879Z,13.90
2022-11-13T13:09:12.712Z,14.10
2022-11-13T13:11:48.938Z,14.20
2022-11-13T13:14:34.246Z,14.40
2022-11-13T13:17:18.448Z,14.50
2022-11-13T13:19:46.567Z,14.60
2022-11-13T13:22:27.241Z,14.80
2022-11-13T13:25:00.877Z,14.80
2022-11-13T13:27:30.457Z,14.80
2022-11-13T13:30:00.286Z,14.80
2022-11-13T13:32:36.032Z,14.80
2022-11-13T13:35:09.764Z,14.70
2022-11-13T13:37:44.531Z,14.70
2022-11-13T13:40:25.580Z,14.70
2022-11-13T13:43:07.743Z,14.60
2022-11-13T13:45:47.930Z,14.60
2022-11-13T13:48:21.509Z,14.50
2022-11-13T13:50:51.747Z,14.50
2022-11-13T13:53:23.490Z,14.60
2022-11-13T13:55:54.193Z,14.50
2022-11-13T13:58:26.798Z,14.40
2022-11-13T14:03:48.855Z,14.40
2022-11-13T14:06:21.739Z,14.30
2022-11-13T14:08:49.808Z,14.20
2022-11-13T14:11:19.950Z,14.20
2022-11-13T14:13:47.880Z,14.20
2022-11-13T14:16:17.161Z,14.10
2022-11-13T14:18:45.218Z,14.20
2022-11-13T14:21:16.655Z,14.10
2022-11-13T14:23:47.844Z,14.00
2022-11-13T14:26:16.207Z,13.90
2022-11-13T14:28:50.979Z,13.80
2022-11-13T14:31:29.789Z,13.60
2022-11-13T14:33:58.714Z,13.50
2022-11-13T14:36:31.491Z,13.30
2022-11-13T14:39:00.112Z,13.20
2022-11-13T14:41:34.076Z,13.20
2022-11-13T14:44:02.485Z,13.10
2022-11-13T14:46:35.290Z,13.00
2022-11-13T14:49:03.303Z,13.00
2022-11-13T14:51:33.181Z,12.90
2022-11-13T14:54:06.115Z,12.80
2022-11-13T14:56:37.868Z,12.70
2022-11-13T14:59:12.403Z,12.50
2022-11-13T15:01:54.979Z,12.30
2022-11-13T15:04:22.951Z,12.20
2022-11-13T15:06:55.326Z,12.00
2022-11-13T15:09:24.872Z,11.90
2022-11-13T15:11:52.911Z,11.70
2022-11-13T15:14:22.012Z,11.60
2022-11-13T15:16:53.720Z,11.50
2022-11-13T15:19:30.300Z,11.40
2022-11-13T15:22:26.084Z,11.30
2022-11-13T15:24:46.314Z,11.20
2022-11-13T15:27:16.104Z,11.10
2022-11-13T15:29:44.575Z,11.00
2022-11-13T15:32:15.786Z,10.90
2022-11-13T15:34:43.887Z,10.90
2022-11-13T15:37:13.509Z,10.80
2022-11-13T15:39:41.404Z,10.80
2022-11-13T15:42:14.223Z,10.70
2022-11-13T15:44:42.033Z,10.70
2022-11-13T15:47:29.094Z,10.60
2022-11-13T15:50:12.928Z,10.50
2022-11-13T15:52:45.706Z,10.40
2022-11-13T15:55:22.028Z,10.40
2022-11-13T15:57:50.145Z,10.30
2022-11-13T16:00:21.227Z,10.30
2022-11-13T16:02:51.960Z,10.30
2022-11-13T16:05:19.850Z,10.20
2022-11-13T16:07:47.668Z,10.10
2022-11-13T16:10:16.363Z,10.10
2022-11-13T16:12:45.739Z,10.10
2022-11-13T16:15:15.579Z,10.10
2022-11-13T16:17:47.168Z,10.00
2022-11-13T16:20:18.218Z,10.00
2022-11-13T16:22:46.398Z,9.90
2022-11-13T16:25:15.794Z,9.90
2022-11-13T16:27:43.779Z,9.90
2022-11-13T16:30:16.190Z,9.90
2022-11-13T16:32:44.026Z,9.80
2022-11-13T16:35:17.145Z,9.80
2022-11-13T16:37:45.476Z,9.50
2022-11-13T16:40:24.547Z,9.70
2022-11-13T16:42:52.605Z,9.70
2022-11-13T16:45:21.521Z,9.60
2022-11-13T16:47:50.417Z,9.50
2022-11-13T16:50:23.685Z,9.50
2022-11-13T16:52:52.335Z,9.60
2022-11-13T16:55:20.352Z,9.40
2022-11-13T16:57:48.159Z,9.30
2022-11-13T17:00:18.191Z,9.30
2022-11-13T17:02:46.643Z,9.30
2022-11-13T17:05:15.546Z,9.30
2022-11-13T17:07:45.115Z,9.30
2022-11-13T17:10:30.692Z,9.30
2022-11-13T17:12:59.774Z,9.20
2022-11-13T17:15:27.628Z,9.10
2022-11-13T17:17:58.354Z,9.00
2022-11-13T17:20:26.286Z,9.10
2022-11-13T17:22:55.977Z,9.10
2022-11-13T17:25:26.524Z,9.10
2022-11-13T17:27:54.584Z,9.00
2022-11-13T17:30:22.600Z,9.10
2022-11-13T17:32:50.502Z,9.00
2022-11-13T17:35:18.317Z,9.30
2022-11-13T17:37:46.128Z,9.00
2022-11-13T17:40:15.296Z,8.90
2022-11-13T17:42:43.093Z,8.90
2022-11-13T17:45:11.607Z,8.90
2022-11-13T17:47:39.533Z,8.90
2022-11-13T17:50:08.255Z,8.90
2022-11-13T17:52:36.172Z,8.80
2022-11-13T17:55:06.187Z,8.80
2022-11-13T17:57:35.567Z,8.80
2022-11-13T18:00:04.126Z,8.80
2022-11-13T18:02:31.930Z,8.80
2022-11-13T18:05:01.352Z,8.80
2022-11-13T18:07:29.638Z,8.70
2022-11-13T18:09:57.689Z,8.70
2022-11-13T18:12:25.543Z,8.70
2022-11-13T18:14:54.703Z,8.70
2022-11-13T18:17:23.759Z,8.70
2022-11-13T18:19:54.767Z,8.70
2022-11-13T18:22:26.463Z,8.60
2022-11-13T18:24:55.326Z,8.60
2022-11-13T18:27:23.186Z,8.60
2022-11-13T18:29:51.013Z,8.60
2022-11-13T18:32:20.155Z,8.50
2022-11-13T18:34:47.977Z,8.60
2022-11-13T18:37:15.827Z,8.50
2022-11-13T18:39:43.698Z,8.50
2022-11-13T18:42:11.503Z,8.50
2022-11-13T18:44:39.307Z,8.40
2022-11-13T18:47:07.183Z,8.40
2022-11-13T18:49:36.364Z,8.20
2022-11-13T18:52:04.497Z,8.40
2022-11-13T18:54:32.317Z,8.30
2022-11-13T18:57:00.183Z,8.30
2022-11-13T18:59:28.015Z,8.30
2022-11-13T19:01:55.985Z,8.30
2022-11-13T19:04:24.449Z,8.40
2022-11-13T19:06:54.073Z,8.30
2022-11-13T19:09:22.366Z,8.30
2022-11-13T19:11:51.219Z,8.10
2022-11-13T19:14:19.904Z,8.20
2022-11-13T19:16:47.863Z,8.30
2022-11-13T19:19:18.144Z,8.20
2022-11-13T19:21:46.509Z,8.20
2022-11-13T19:24:16.007Z,8.20
2022-11-13T19:26:43.994Z,8.00
2022-11-13T19:29:12.387Z,8.20
2022-11-13T19:31:40.415Z,8.00
2022-11-13T19:34:09.179Z,8.10
2022-11-13T19:36:37.327Z,7.50
2022-11-13T19:39:05.845Z,8.00
2022-11-13T19:41:35.015Z,8.20
2022-11-13T19:44:02.835Z,8.10
2022-11-13T19:46:32.039Z,8.10
2022-11-13T19:48:59.940Z,8.20
2022-11-13T19:51:28.178Z,7.70
2022-11-13T19:53:57.968Z,8.30
2022-11-13T19:56:28.162Z,8.30
2022-11-13T19:58:57.720Z,7.80
2022-11-13T20:01:27.675Z,7.80
2022-11-13T20:03:56.031Z,7.70
2022-11-13T20:06:24.720Z,7.70
2022-11-13T20:08:52.606Z,7.70
2022-11-13T20:11:20.528Z,7.80
2022-11-13T20:13:48.452Z,7.60
2022-11-13T20:16:20.852Z,7.50
2022-11-13T20:18:49.010Z,7.60
2022-11-13T20:21:17.084Z,7.60
2022-11-13T20:23:45.044Z,7.80
2022-11-13T20:26:16.565Z,7.60
2022-11-13T20:28:44.620Z,7.50
2022-11-13T20:31:16.386Z,7.80
2022-11-13T20:33:45.820Z,7.40
2022-11-13T20:36:13.976Z,7.60
2022-11-13T20:38:44.053Z,7.50
2022-11-13T20:41:12.640Z,7.50
2022-11-13T20:43:40.715Z,7.50
2022-11-13T20:46:11.866Z,7.60
2022-11-13T20:48:39.929Z,7.60
2022-11-13T20:51:11.511Z,7.60
2022-11-13T20:53:39.904Z,7.60
2022-11-13T20:56:08.490Z,7.60
2022-11-13T20:58:36.728Z,7.60
2022-11-13T21:01:06.130Z,7.60
2022-11-13T21:03:38.588Z,7.60
2022-11-13T21:06:11.939Z,7.50
2022-11-13T21:08:40.316Z,7.70
2022-11-13T21:11:09.110Z,7.50
2022-11-13T21:13:36.926Z,7.50
2022-11-13T21:16:07.170Z,7.40
2022-11-13T21:18:35.603Z,7.40
2022-11-13T21:21:08.079Z,7.40
2022-11-13T21:23:37.930Z,7.40
2022-11-13T21:26:07.508Z,7.40
2022-11-13T21:28:36.208Z,7.40
2022-11-13T21:31:05.671Z,7.40
2022-11-13T21:33:37.750Z,7.50
2022-11-13T21:36:07.264Z,7.50
2022-11-13T21:38:35.254Z,7.50
2022-11-13T21:41:24.747Z,7.50
2022-11-13T21:43:56.638Z,7.50
2022-11-13T21:46:27.194Z,7.70
2022-11-13T21:48:59.614Z,7.50
2022-11-13T21:51:27.896Z,7.40
2022-11-13T21:53:56.170Z,7.40
2022-11-13T21:56:26.340Z,7.40
2022-11-13T21:58:55.671Z,7.40
2022-11-13T22:01:24.100Z,7.70
2022-11-13T22:03:52.155Z,7.40
2022-11-13T22:06:22.535Z,7.40
2022-11-13T22:08:55.999Z,7.40
2022-11-13T22:11:26.515Z,7.40
2022-11-13T22:13:54.553Z,7.40
2022-11-13T22:16:23.131Z,7.30
2022-11-13T22:18:54.761Z,7.40
2022-11-13T22:21:23.428Z,7.40
2022-11-13T22:23:51.724Z,7.40
2022-11-13T22:26:20.761Z,7.40
2022-11-13T22:28:50.613Z,7.40
2022-11-13T22:31:21.653Z,7.50
2022-11-13T22:33:54.443Z,7.40
2022-11-13T22:36:24.455Z,7.40
2022-11-13T22:38:52.498Z,7.40
2022-11-13T22:41:23.960Z,7.40
2022-11-13T22:43:55.392Z,7.40
2022-11-13T22:46:24.907Z,7.40
2022-11-13T22:48:54.215Z,7.40
2022-11-13T22:51:24.329Z,7.60
2022-11-13T22:53:54.078Z,7.40
2022-11-13T22:56:23.174Z,7.40
2022-11-13T22:58:51.010Z,7.80
2022-11-13T23:01:22.233Z,7.40
2022-11-13T23:03:51.733Z,7.20
2022-11-13T23:06:21.904Z,7.40
2022-11-13T23:08:50.747Z,7.40
2022-11-13T23:11:20.293Z,7.40
2022-11-13T23:13:53.810Z,7.70
2022-11-13T23:16:24.300Z,7.20
2022-11-13T23:18:53.214Z,7.40
2022-11-13T23:21:21.402Z,7.30
2022-11-13T23:23:49.261Z,7.30
2022-11-13T23:26:17.944Z,7.30
2022-11-13T23:28:46.464Z,7.30
2022-11-13T23:31:14.647Z,7.60
2022-11-13T23:33:43.898Z,7.40
2022-11-13T23:36:14.132Z,7.40
2022-11-13T23:38:42.621Z,7.60
2022-11-13T23:41:11.663Z,7.40
2022-11-13T23:44:08.049Z,7.20
2022-11-13T23:46:27.343Z,7.40
2022-11-13T23:48:56.628Z,7.40
2022-11-13T23:51:24.431Z,7.40
2022-11-13T23:53:52.248Z,7.40
2022-11-13T23:56:20.070Z,7.40
2022-11-13T23:58:47.907Z,7.40
